Time;durP1;ratioP1;P1;durP2;ratioP2;P2;SDS_P1;SDS_P2;PMS_P1;PMS_P2;Temp;Humidity;BMP_temperature;BMP_pressure;BME280_temperature;BME280_humidity;BME280_pressure;Samples;Min_cycle;Max_cycle;Signal;HPM_P1;HPM_P2
2022/11/13 00:02:04;;;;;;;;;58.75;47.75;;;;;;;;5056440;28;45316;-73
2022/11/13 00:04:29;;;;;;;;;59.00;46.25;;;;;;;;5052004;28;45769;-73
2022/11/13 00:06:54;;;;;;;;;61.50;48.25;;;;;;;;5056641;28;45517;-73
2022/11/13 00:09:19;;;;;;;;;58.75;47.00;;;;;;;;5056010;28;47402;-73
2022/11/13 00:11:45;;;;;;;;;60.75;48.50;;;;;;;;5050859;28;45539;-73
2022/11/13 00:14:10;;;;;;;;;57.50;45.75;;;;;;;;5034672;28;45359;-74
2022/11/13 00:16:37;;;;;;;;;59.75;47.00;;;;;;;;5033702;28;45635;-74
2022/11/13 00:19:03;;;;;;;;;57.00;45.50;;;;;;;;5038004;28;45454;-74
2022/11/13 00:21:28;;;;;;;;;59.00;47.00;;;;;;;;5045536;28;45505;-75
2022/11/13 00:23:54;;;;;;;;;55.75;45.50;;;;;;;;5035683;28;45558;-74
2022/11/13 00:26:27;;;;;;;;;57.50;44.50;;;;;;;;5055341;28;45380;-74
2022/11/13 00:28:53;;;;;;;;;53.50;42.75;;;;;;;;5036853;28;46236;-74
2022/11/13 00:31:19;;;;;;;;;53.25;43.25;;;;;;;;5035416;28;45585;-74
2022/11/13 00:33:44;;;;;;;;;47.75;40.50;;;;;;;;5036218;28;45388;-74
2022/11/13 00:36:12;;;;;;;;;57.00;45.50;;;;;;;;5035780;28;45384;-75
2022/11/13 00:38:38;;;;;;;;;55.25;44.00;;;;;;;;5035618;28;47270;-75
2022/11/13 00:41:03;;;;;;;;;54.25;43.50;;;;;;;;5034228;28;45421;-74
2022/11/13 00:43:29;;;;;;;;;52.50;43.50;;;;;;;;5050202;28;45475;-74
2022/11/13 00:45:54;;;;;;;;;55.25;41.50;;;;;;;;5016355;28;45363;-74
2022/11/13 00:48:20;;;;;;;;;52.50;42.00;;;;;;;;5014273;28;47130;-74
2022/11/13 00:50:46;;;;;;;;;54.50;43.50;;;;;;;;5015697;28;45232;-75
2022/11/13 00:53:11;;;;;;;;;51.25;40.00;;;;;;;;5042424;28;45492;-74
2022/11/13 00:55:36;;;;;;;;;53.75;43.50;;;;;;;;5057537;28;45531;-74
2022/11/13 00:58:03;;;;;;;;;58.25;45.50;;;;;;;;5056063;28;46962;-74
2022/11/13 01:00:29;;;;;;;;;57.50;45.25;;;;;;;;5059143;28;45367;-74
2022/11/13 01:02:54;;;;;;;;;47.00;40.00;;;;;;;;5059117;28;45589;-74
2022/11/13 01:05:22;;;;;;;;;53.75;42.75;;;;;;;;5045976;28;45452;-75
2022/11/13 01:07:48;;;;;;;;;53.00;44.00;;;;;;;;5053924;28;46992;-74
2022/11/13 01:10:14;;;;;;;;;56.00;44.00;;;;;;;;5046444;28;45372;-74
2022/11/13 01:12:39;;;;;;;;;53.75;44.75;;;;;;;;5054083;28;45470;-74
2022/11/13 01:15:05;;;;;;;;;50.00;41.75;;;;;;;;5043465;28;45690;-73
2022/11/13 01:17:30;;;;;;;;;48.00;39.75;;;;;;;;5044916;28;46632;-73
2022/11/13 01:19:55;;;;;;;;;47.00;39.25;;;;;;;;5048905;28;45655;-73
2022/11/13 01:22:21;;;;;;;;;54.00;42.75;;;;;;;;5056266;28;45503;-73
2022/11/13 01:24:47;;;;;;;;;54.00;42.25;;;;;;;;5044362;28;45718;-73
2022/11/13 01:27:14;;;;;;;;;47.75;40.00;;;;;;;;5040273;28;45630;-73
2022/11/13 01:29:39;;;;;;;;;48.75;40.50;;;;;;;;5037301;28;45542;-73
2022/11/13 01:32:04;;;;;;;;;49.25;40.50;;;;;;;;5051954;28;45353;-73
2022/11/13 01:34:30;;;;;;;;;53.00;42.00;;;;;;;;5047380;28;45567;-72
2022/11/13 01:36:55;;;;;;;;;52.00;42.50;;;;;;;;5056896;28;46764;-73
2022/11/13 01:39:21;;;;;;;;;47.00;38.25;;;;;;;;5057146;28;45464;-73
2022/11/13 01:41:46;;;;;;;;;51.75;41.75;;;;;;;;5044261;28;45397;-74
2022/11/13 01:44:14;;;;;;;;;55.75;44.75;;;;;;;;5042230;28;45639;-73
2022/11/13 01:46:44;;;;;;;;;62.75;48.25;;;;;;;;5055100;28;45979;-73
2022/11/13 01:49:09;;;;;;;;;61.50;49.00;;;;;;;;5038364;28;46016;-73
2022/11/13 01:51:38;;;;;;;;;58.25;47.00;;;;;;;;5053305;28;45551;-73
2022/11/13 01:54:05;;;;;;;;;62.50;50.00;;;;;;;;5046791;28;45339;-73
2022/11/13 01:56:31;;;;;;;;;68.75;52.50;;;;;;;;5038461;28;45340;-73
2022/11/13 01:59:00;;;;;;;;;68.75;52.00;;;;;;;;5053106;28;45385;-74
2022/11/13 02:01:26;;;;;;;;;65.00;52.00;;;;;;;;5036258;28;45409;-73
2022/11/13 02:03:51;;;;;;;;;64.00;52.25;;;;;;;;5038560;28;45469;-73
2022/11/13 02:06:17;;;;;;;;;64.00;50.50;;;;;;;;5041193;28;46481;-73
2022/11/13 02:08:43;;;;;;;;;68.25;53.75;;;;;;;;5054121;28;45431;-73
2022/11/13 02:11:09;;;;;;;;;68.25;53.50;;;;;;;;5051463;28;45518;-73
2022/11/13 02:13:36;;;;;;;;;67.75;53.75;;;;;;;;5035584;28;45559;-73
2022/11/13 02:16:02;;;;;;;;;66.00;51.00;;;;;;;;5055110;28;48467;-73
2022/11/13 02:18:28;;;;;;;;;67.00;53.00;;;;;;;;5040239;28;45392;-73
2022/11/13 02:21:00;;;;;;;;;65.25;51.75;;;;;;;;5053086;28;45973;-73
2022/11/13 02:23:35;;;;;;;;;55.75;44.50;;;;;;;;5055039;28;45800;-73
2022/11/13 02:26:01;;;;;;;;;64.25;51.50;;;;;;;;5038320;28;46219;-73
2022/11/13 02:28:26;;;;;;;;;67.75;53.75;;;;;;;;5035824;28;45513;-73
2022/11/13 02:30:51;;;;;;;;;66.75;50.75;;;;;;;;5051925;28;45702;-73
2022/11/13 02:33:31;;;;;;;;;64.00;50.25;;;;;;;;5056837;28;45266;-73
2022/11/13 02:35:56;;;;;;;;;64.75;49.00;;;;;;;;5046709;28;46683;-73
2022/11/13 02:38:22;;;;;;;;;63.25;49.25;;;;;;;;5052006;28;45533;-73
2022/11/13 02:40:47;;;;;;;;;63.00;49.50;;;;;;;;5037357;28;45536;-73
2022/11/13 02:43:13;;;;;;;;;59.25;48.25;;;;;;;;5036466;28;46126;-72
2022/11/13 02:45:38;;;;;;;;;59.00;47.00;;;;;;;;5046665;28;46005;-73
2022/11/13 02:48:04;;;;;;;;;59.75;48.00;;;;;;;;5051156;28;45351;-73
2022/11/13 02:50:29;;;;;;;;;61.75;49.25;;;;;;;;5050100;28;45537;-73
2022/11/13 02:52:55;;;;;;;;;61.00;47.00;;;;;;;;5040597;28;45397;-73
2022/11/13 02:55:20;;;;;;;;;58.50;45.50;;;;;;;;5047815;28;45968;-73
2022/11/13 02:57:45;;;;;;;;;55.75;46.00;;;;;;;;5036008;28;45416;-73
2022/11/13 03:00:12;;;;;;;;;58.50;45.00;;;;;;;;5027924;28;45321;-73
2022/11/13 03:02:37;;;;;;;;;52.00;44.25;;;;;;;;5017491;28;45338;-73
2022/11/13 03:05:02;;;;;;;;;46.75;37.00;;;;;;;;5034474;28;45926;-73
2022/11/13 03:07:28;;;;;;;;;42.00;33.33;;;;;;;;5037080;28;45382;-73
2022/11/13 03:09:53;;;;;;;;;37.67;33.00;;;;;;;;5036267;28;45358;-73
2022/11/13 03:12:18;;;;;;;;;38.00;34.33;;;;;;;;5036085;28;45351;-73
2022/11/13 03:14:44;;;;;;;;;34.67;27.00;;;;;;;;5046266;28;45904;-73
2022/11/13 03:17:09;;;;;;;;;45.00;36.00;;;;;;;;5055310;28;45336;-74
2022/11/13 03:19:34;;;;;;;;;39.00;35.67;;;;;;;;5034767;28;45406;-73
2022/11/13 03:22:00;;;;;;;;;43.00;35.67;;;;;;;;5037173;28;45432;-73
2022/11/13 03:24:25;;;;;;;;;46.33;36.00;;;;;;;;5036828;28;46255;-73
2022/11/13 03:26:51;;;;;;;;;38.67;35.00;;;;;;;;5018693;28;45701;-73
2022/11/13 03:29:16;;;;;;;;;42.00;33.33;;;;;;;;5037136;28;45377;-73
2022/11/13 03:31:41;;;;;;;;;40.67;33.33;;;;;;;;5035410;28;45690;-72
2022/11/13 03:34:06;;;;;;;;;44.00;36.33;;;;;;;;5040547;28;46329;-73
2022/11/13 03:36:32;;;;;;;;;43.00;36.00;;;;;;;;5047086;28;45911;-73
2022/11/13 03:38:57;;;;;;;;;44.00;35.67;;;;;;;;5037096;28;45348;-73
2022/11/13 03:41:23;;;;;;;;;38.33;33.67;;;;;;;;5037124;28;45507;-76
2022/11/13 03:43:48;;;;;;;;;42.00;34.67;;;;;;;;5036799;28;48767;-73
2022/11/13 03:46:13;;;;;;;;;40.00;35.00;;;;;;;;5056682;28;45317;-74
2022/11/13 03:48:39;;;;;;;;;37.67;33.00;;;;;;;;5057149;28;45292;-75
2022/11/13 03:51:04;;;;;;;;;45.75;38.75;;;;;;;;5057061;28;45297;-73
2022/11/13 03:53:30;;;;;;;;;43.67;36.00;;;;;;;;5056445;28;47254;-74
2022/11/13 03:55:55;;;;;;;;;35.67;32.33;;;;;;;;5037365;28;45333;-74
2022/11/13 03:58:21;;;;;;;;;37.00;33.00;;;;;;;;5036545;28;45455;-74
2022/11/13 04:00:47;;;;;;;;;37.33;33.00;;;;;;;;5035290;28;45361;-73
2022/11/13 04:03:12;;;;;;;;;40.00;32.33;;;;;;;;5036393;28;46966;-73
2022/11/13 04:05:38;;;;;;;;;34.00;30.33;;;;;;;;5036497;28;45359;-73
2022/11/13 04:08:03;;;;;;;;;32.67;30.33;;;;;;;;5036596;28;45459;-75
2022/11/13 04:10:29;;;;;;;;;34.67;30.33;;;;;;;;5036329;28;45447;-75
2022/11/13 04:12:54;;;;;;;;;27.33;27.33;;;;;;;;5036205;28;46566;-76
2022/11/13 04:15:20;;;;;;;;;35.00;32.33;;;;;;;;5034092;28;45997;-77
2022/11/13 04:17:45;;;;;;;;;36.67;32.00;;;;;;;;5051223;28;45532;-77
2022/11/13 04:20:11;;;;;;;;;36.67;31.00;;;;;;;;5036898;28;45532;-77
2022/11/13 04:22:36;;;;;;;;;34.33;31.00;;;;;;;;5044715;28;47217;-77
2022/11/13 04:25:02;;;;;;;;;31.67;30.33;;;;;;;;5042335;28;45569;-77
2022/11/13 04:27:27;;;;;;;;;30.33;25.33;;;;;;;;5045197;28;45544;-77
2022/11/13 04:29:52;;;;;;;;;32.00;27.33;;;;;;;;5051949;28;45527;-77
2022/11/13 04:32:18;;;;;;;;;31.00;27.67;;;;;;;;5038115;28;46198;-77
2022/11/13 04:34:43;;;;;;;;;35.00;29.33;;;;;;;;5041934;28;45388;-77
2022/11/13 04:37:08;;;;;;;;;34.67;31.67;;;;;;;;5045917;28;45595;-77
2022/11/13 04:39:34;;;;;;;;;34.67;30.33;;;;;;;;5038744;28;45432;-77
2022/11/13 04:44:43;;;;;;;;;41.67;33.33;;;;;;;;5037840;28;45305;-77
2022/11/13 04:47:09;;;;;;;;;31.00;28.33;;;;;;;;5045343;28;45648;-77
2022/11/13 04:49:34;;;;;;;;;36.00;25.67;;;;;;;;5058900;28;45314;-77
2022/11/13 04:51:59;;;;;;;;;26.67;24.00;;;;;;;;5049273;28;45325;-77
2022/11/13 04:54:25;;;;;;;;;31.00;25.67;;;;;;;;5057315;28;45480;-77
2022/11/13 04:56:50;;;;;;;;;19.00;18.33;;;;;;;;5047236;28;45512;-77
2022/11/13 04:59:15;;;;;;;;;21.00;21.00;;;;;;;;5058412;28;45306;-77
2022/11/13 05:01:41;;;;;;;;;20.00;18.00;;;;;;;;5046962;28;46389;-77
2022/11/13 05:04:09;;;;;;;;;19.33;17.00;;;;;;;;5038769;28;45266;-80
2022/11/13 05:06:34;;;;;;;;;22.67;21.33;;;;;;;;5041748;28;45486;-81
2022/11/13 05:09:00;;;;;;;;;19.33;17.67;;;;;;;;5053898;28;45799;-81
2022/11/13 05:11:25;;;;;;;;;19.00;18.33;;;;;;;;5037605;28;47267;-82
2022/11/13 05:13:50;;;;;;;;;18.00;18.00;;;;;;;;5045332;28;45710;-82
2022/11/13 05:16:15;;;;;;;;;18.00;18.00;;;;;;;;5054027;28;45381;-83
2022/11/13 05:18:41;;;;;;;;;22.00;19.67;;;;;;;;5050584;28;45316;-82
2022/11/13 05:21:07;;;;;;;;;22.33;18.67;;;;;;;;5038261;28;46174;-83
2022/11/13 05:23:42;;;;;;;;;22.00;22.00;;;;;;;;5047529;28;45529;-82
2022/11/13 05:26:12;;;;;;;;;25.00;22.00;;;;;;;;5034410;28;45404;-82
2022/11/13 05:28:38;;;;;;;;;23.67;22.33;;;;;;;;5057991;28;45534;-79
2022/11/13 05:31:08;;;;;;;;;29.00;24.00;;;;;;;;5051936;28;47081;-82
2022/11/13 05:33:34;;;;;;;;;26.67;25.67;;;;;;;;5039292;28;45482;-80
2022/11/13 05:36:06;;;;;;;;;26.00;24.67;;;;;;;;5057778;28;45362;-79
2022/11/13 05:38:32;;;;;;;;;28.33;24.33;;;;;;;;5053700;28;45761;-80
2022/11/13 05:41:01;;;;;;;;;29.67;24.00;;;;;;;;5052362;28;47456;-79
2022/11/13 05:43:26;;;;;;;;;23.33;23.33;;;;;;;;5048712;28;45507;-76
2022/11/13 05:45:57;;;;;;;;;19.33;18.00;;;;;;;;5054933;28;45317;-76
2022/11/13 05:48:23;;;;;;;;;24.33;24.33;;;;;;;;5036891;28;45532;-76
2022/11/13 05:50:48;;;;;;;;;23.67;22.67;;;;;;;;5030423;28;47217;-79
2022/11/13 05:53:47;;;;;;;;;24.00;24.00;;;;;;;;5038622;28;46073;-79
2022/11/13 05:56:14;;;;;;;;;29.67;24.00;;;;;;;;5032275;28;45477;-79
2022/11/13 05:58:40;;;;;;;;;22.00;21.00;;;;;;;;5060022;27;45546;-79
2022/11/13 06:01:06;;;;;;;;;21.00;19.67;;;;;;;;5036844;28;46621;-78
2022/11/13 06:03:32;;;;;;;;;21.67;19.00;;;;;;;;5038775;28;45993;-79
2022/11/13 06:05:57;;;;;;;;;19.00;16.33;;;;;;;;5042073;28;45370;-79
2022/11/13 06:08:22;;;;;;;;;20.00;19.00;;;;;;;;5049505;28;45460;-79
2022/11/13 06:10:48;;;;;;;;;18.00;17.00;;;;;;;;5036413;28;45635;-79
2022/11/13 06:13:13;;;;;;;;;13.67;13.33;;;;;;;;5035045;28;45929;-80
2022/11/13 06:15:38;;;;;;;;;16.00;16.00;;;;;;;;5052837;28;45407;-79
2022/11/13 06:18:03;;;;;;;;;18.33;17.00;;;;;;;;5052804;28;45405;-80
2022/11/13 06:20:29;;;;;;;;;18.33;13.33;;;;;;;;5042705;28;46243;-79
2022/11/13 06:22:54;;;;;;;;;17.00;14.33;;;;;;;;5044300;28;45838;-77
2022/11/13 06:25:19;;;;;;;;;19.67;17.00;;;;;;;;5053833;28;47034;-78
2022/11/13 06:27:44;;;;;;;;;17.67;16.33;;;;;;;;5041847;28;45724;-76
2022/11/13 06:30:10;;;;;;;;;15.67;13.67;;;;;;;;5052440;28;45596;-77
2022/11/13 06:32:35;;;;;;;;;16.67;15.00;;;;;;;;5049471;28;45492;-75
2022/11/13 06:35:00;;;;;;;;;14.00;13.67;;;;;;;;5034669;28;46174;-80
2022/11/13 06:37:25;;;;;;;;;16.33;15.33;;;;;;;;5041801;28;46265;-76
2022/11/13 06:39:50;;;;;;;;;20.33;17.00;;;;;;;;5038508;28;46738;-76
2022/11/13 06:42:16;;;;;;;;;17.00;15.33;;;;;;;;5049860;28;45823;-75
2022/11/13 06:44:41;;;;;;;;;21.67;16.33;;;;;;;;5047070;28;45370;-76
2022/11/13 06:47:06;;;;;;;;;17.00;16.00;;;;;;;;5037551;28;45550;-75
2022/11/13 06:49:31;;;;;;;;;16.33;16.33;;;;;;;;5053135;28;45996;-75
2022/11/13 06:51:56;;;;;;;;;19.00;17.00;;;;;;;;5051021;28;45385;-75
2022/11/13 06:54:22;;;;;;;;;17.33;16.00;;;;;;;;5055571;28;45416;-75
2022/11/13 06:56:47;;;;;;;;;18.00;17.33;;;;;;;;5038836;28;45529;-82
2022/11/13 06:59:12;;;;;;;;;15.33;15.00;;;;;;;;5033275;28;46199;-77
2022/11/13 07:01:37;;;;;;;;;18.67;17.33;;;;;;;;5035280;28;45552;-77
2022/11/13 07:04:03;;;;;;;;;20.00;18.67;;;;;;;;5036482;28;45429;-77
2022/11/13 07:06:28;;;;;;;;;15.67;14.67;;;;;;;;5034426;28;45543;-78
2022/11/13 07:08:53;;;;;;;;;19.33;18.00;;;;;;;;5035413;28;46159;-78
2022/11/13 07:11:20;;;;;;;;;16.00;16.00;;;;;;;;5040596;28;45306;-78
2022/11/13 07:13:45;;;;;;;;;18.00;15.33;;;;;;;;5035245;28;45467;-82
2022/11/13 07:16:11;;;;;;;;;16.00;14.33;;;;;;;;5035987;28;45500;-83
2022/11/13 07:18:36;;;;;;;;;15.67;14.33;;;;;;;;5051295;28;46022;-79
2022/11/13 07:21:05;;;;;;;;;17.00;16.67;;;;;;;;5036152;28;45594;-79
2022/11/13 07:23:31;;;;;;;;;17.33;15.33;;;;;;;;5037738;28;46730;-78
2022/11/13 07:25:57;;;;;;;;;23.00;19.67;;;;;;;;5041181;28;45492;-78
2022/11/13 07:28:22;;;;;;;;;20.00;17.33;;;;;;;;5040735;28;46104;-78
2022/11/13 07:30:48;;;;;;;;;19.33;16.33;;;;;;;;5054587;28;45356;-77
2022/11/13 07:33:13;;;;;;;;;17.33;14.33;;;;;;;;5042424;28;45330;-77
2022/11/13 07:35:38;;;;;;;;;18.00;18.00;;;;;;;;5039762;28;45443;-77
2022/11/13 07:38:03;;;;;;;;;19.33;16.67;;;;;;;;5036031;28;45993;-77
2022/11/13 07:40:28;;;;;;;;;20.00;17.67;;;;;;;;5048092;28;45333;-77
2022/11/13 07:43:00;;;;;;;;;19.33;17.33;;;;;;;;5039682;28;45534;-77
2022/11/13 07:45:26;;;;;;;;;22.00;18.33;;;;;;;;5037594;28;45342;-76
2022/11/13 07:47:55;;;;;;;;;18.00;17.00;;;;;;;;5038022;28;46902;-76
2022/11/13 07:50:21;;;;;;;;;20.00;18.00;;;;;;;;5042335;28;45495;-76
2022/11/13 07:52:46;;;;;;;;;13.33;13.33;;;;;;;;5047927;28;45546;-75
2022/11/13 07:55:11;;;;;;;;;17.33;17.00;;;;;;;;5040209;28;45475;-76
2022/11/13 07:57:36;;;;;;;;;20.00;15.33;;;;;;;;5041114;28;48099;-76
2022/11/13 08:00:02;;;;;;;;;18.33;17.00;;;;;;;;5033531;28;45712;-75
2022/11/13 08:02:27;;;;;;;;;18.00;16.33;;;;;;;;5068531;28;45389;-76
2022/11/13 08:04:53;;;;;;;;;21.33;17.67;;;;;;;;5049185;28;45363;-76
2022/11/13 08:07:18;;;;;;;;;19.33;17.67;;;;;;;;5034822;28;46591;-76
2022/11/13 08:09:43;;;;;;;;;19.67;18.00;;;;;;;;5034600;28;45412;-80
2022/11/13 08:12:08;;;;;;;;;17.00;16.00;;;;;;;;5034468;28;46255;-79
2022/11/13 08:14:34;;;;;;;;;18.67;18.00;;;;;;;;5042546;28;45289;-79
2022/11/13 08:16:59;;;;;;;;;18.00;18.00;;;;;;;;5035875;28;47494;-92
2022/11/13 08:19:24;;;;;;;;;15.00;14.67;;;;;;;;5033019;28;45622;-82
2022/11/13 08:21:49;;;;;;;;;24.00;19.67;;;;;;;;5034820;28;45492;-80
2022/11/13 08:24:14;;;;;;;;;18.67;16.67;;;;;;;;5036286;28;45510;-76
2022/11/13 08:26:40;;;;;;;;;17.67;17.67;;;;;;;;5033959;28;47145;-78
2022/11/13 08:29:05;;;;;;;;;18.67;16.33;;;;;;;;5037757;28;45466;-77
2022/11/13 08:31:30;;;;;;;;;23.33;20.67;;;;;;;;5038479;28;45601;-81
2022/11/13 08:33:56;;;;;;;;;22.33;21.00;;;;;;;;5035367;28;45596;-81
2022/11/13 08:36:21;;;;;;;;;21.00;19.00;;;;;;;;5032241;28;47240;-80
2022/11/13 08:38:46;;;;;;;;;22.00;19.67;;;;;;;;5035105;28;45461;-79
2022/11/13 08:41:12;;;;;;;;;22.33;22.00;;;;;;;;5066697;28;45910;-83
2022/11/13 08:43:38;;;;;;;;;18.67;18.67;;;;;;;;5035704;28;45658;-79
2022/11/13 08:46:03;;;;;;;;;20.67;20.00;;;;;;;;5035477;28;46005;-79
2022/11/13 08:48:28;;;;;;;;;20.67;18.00;;;;;;;;5034393;28;45446;-79
2022/11/13 08:50:54;;;;;;;;;18.00;15.67;;;;;;;;5039614;28;45807;-79
2022/11/13 08:53:20;;;;;;;;;20.00;20.00;;;;;;;;5035011;28;45529;-79
2022/11/13 08:55:45;;;;;;;;;19.33;17.00;;;;;;;;5035171;28;47438;-79
2022/11/13 08:58:10;;;;;;;;;23.67;20.00;;;;;;;;5033183;28;45397;-79
2022/11/13 09:00:36;;;;;;;;;21.67;19.00;;;;;;;;5034696;28;45339;-79
2022/11/13 09:03:01;;;;;;;;;20.67;19.33;;;;;;;;5036672;28;45408;-79
2022/11/13 09:05:26;;;;;;;;;21.33;20.33;;;;;;;;5032572;28;46493;-80
2022/11/13 09:07:55;;;;;;;;;23.67;21.67;;;;;;;;5033516;28;45472;-80
2022/11/13 09:10:20;;;;;;;;;20.33;19.67;;;;;;;;5035464;28;45472;-79
2022/11/13 09:12:45;;;;;;;;;19.67;19.67;;;;;;;;5034883;28;45777;-79
2022/11/13 09:15:10;;;;;;;;;19.33;19.33;;;;;;;;5033819;28;48397;-73
2022/11/13 09:17:36;;;;;;;;;21.67;19.00;;;;;;;;5031536;28;45735;-76
2022/11/13 09:20:01;;;;;;;;;22.67;17.33;;;;;;;;5043544;28;46833;-78
2022/11/13 09:22:26;;;;;;;;;19.67;19.67;;;;;;;;5044536;28;45559;-74
2022/11/13 09:24:52;;;;;;;;;21.33;20.00;;;;;;;;5038392;28;46271;-74
2022/11/13 09:27:17;;;;;;;;;21.67;20.67;;;;;;;;5046044;28;45533;-76
2022/11/13 09:29:42;;;;;;;;;25.67;22.33;;;;;;;;5038823;28;46264;-76
2022/11/13 09:32:08;;;;;;;;;18.33;14.33;;;;;;;;5035233;28;45630;-75
2022/11/13 09:34:33;;;;;;;;;31.00;25.00;;;;;;;;5035966;28;45404;-75
2022/11/13 09:36:58;;;;;;;;;22.33;19.67;;;;;;;;5038440;28;45617;-76
2022/11/13 09:39:24;;;;;;;;;24.67;22.00;;;;;;;;5039364;28;45457;-75
2022/11/13 09:42:02;;;;;;;;;20.33;19.33;;;;;;;;5041057;28;45547;-75
2022/11/13 09:44:28;;;;;;;;;26.67;23.33;;;;;;;;5046281;28;46312;-76
2022/11/13 09:46:56;;;;;;;;;23.67;20.33;;;;;;;;5041325;28;45494;-76
2022/11/13 09:49:25;;;;;;;;;23.67;22.00;;;;;;;;5040495;28;45515;-76
2022/11/13 09:52:29;;;;;;;;;25.67;23.33;;;;;;;;5042039;28;45560;-80
2022/11/13 09:54:55;;;;;;;;;24.33;24.00;;;;;;;;4956006;28;46520;-79
2022/11/13 09:57:22;;;;;;;;;27.33;24.67;;;;;;;;4957673;28;45652;-78
2022/11/13 09:59:52;;;;;;;;;21.00;20.67;;;;;;;;4955789;28;45507;-75
2022/11/13 10:02:23;;;;;;;;;21.00;21.00;;;;;;;;4953501;28;45610;-81
2022/11/13 10:05:03;;;;;;;;;19.67;17.67;;;;;;;;4959224;28;45499;-79
2022/11/13 10:07:39;;;;;;;;;17.67;17.67;;;;;;;;4954010;28;45539;-78
2022/11/13 10:10:16;;;;;;;;;19.00;19.00;;;;;;;;4944169;28;45452;-75
2022/11/13 10:12:43;;;;;;;;;17.00;16.67;;;;;;;;4939553;28;45663;-74
2022/11/13 10:15:09;;;;;;;;;17.00;16.00;;;;;;;;4955966;28;46166;-83
2022/11/13 10:17:43;;;;;;;;;19.33;18.67;;;;;;;;4954384;28;45686;-77
2022/11/13 10:20:14;;;;;;;;;16.67;16.67;;;;;;;;4941302;28;45977;-79
2022/11/13 10:22:45;;;;;;;;;19.33;18.33;;;;;;;;4960141;28;46615;-80
2022/11/13 10:25:11;;;;;;;;;18.33;17.33;;;;;;;;4964890;28;45475;-75
2022/11/13 10:27:37;;;;;;;;;17.67;17.33;;;;;;;;5033541;28;45749;-74
2022/11/13 10:30:02;;;;;;;;;23.33;19.33;;;;;;;;5053791;28;45679;-77
2022/11/13 10:32:31;;;;;;;;;22.00;19.33;;;;;;;;5035330;28;45964;-76
2022/11/13 10:35:00;;;;;;;;;14.67;12.67;;;;;;;;5037680;28;46440;-76
2022/11/13 10:37:44;;;;;;;;;18.67;17.67;;;;;;;;5048264;28;45588;-77
2022/11/13 10:40:09;;;;;;;;;21.00;15.33;;;;;;;;5030753;28;45479;-77
2022/11/13 10:42:39;;;;;;;;;21.00;21.00;;;;;;;;5030719;28;45425;-76
2022/11/13 10:45:12;;;;;;;;;21.33;19.00;;;;;;;;5039468;28;47148;-75
2022/11/13 10:47:44;;;;;;;;;23.00;20.00;;;;;;;;5068472;27;45604;-75
2022/11/13 10:50:11;;;;;;;;;18.00;17.00;;;;;;;;5036169;28;45361;-76
2022/11/13 10:52:43;;;;;;;;;16.00;16.00;;;;;;;;5035719;28;46757;-77
2022/11/13 10:55:11;;;;;;;;;21.33;17.67;;;;;;;;5043698;28;46560;-75
2022/11/13 10:57:36;;;;;;;;;19.00;17.33;;;;;;;;5045529;28;45456;-76
2022/11/13 11:00:17;;;;;;;;;23.67;21.67;;;;;;;;5049667;28;45443;-76
2022/11/13 11:02:47;;;;;;;;;19.67;18.67;;;;;;;;5045366;28;45298;-81
2022/11/13 11:05:17;;;;;;;;;25.67;25.33;;;;;;;;5033610;28;46293;-78
2022/11/13 11:07:42;;;;;;;;;25.33;19.00;;;;;;;;5048961;28;45491;-77
2022/11/13 11:12:14;;;;;;;;;20.00;18.67;;;;;;;;5041445;28;45595;-76
2022/11/13 11:13:23;;;;;;;;;29.00;26.00;;;;;;;;5033492;28;45660;-85
2022/11/13 11:15:53;;;;;;;;;25.00;23.00;;;;;;;;5039702;28;46205;-79
2022/11/13 11:18:25;;;;;;;;;20.33;19.33;;;;;;;;5034621;28;45381;-80
2022/11/13 11:20:52;;;;;;;;;22.67;18.67;;;;;;;;5036554;28;45465;-78
2022/11/13 11:23:36;;;;;;;;;19.67;19.67;;;;;;;;5037099;28;45527;-80
2022/11/13 11:26:19;;;;;;;;;24.67;22.00;;;;;;;;5033607;28;45594;-76
2022/11/13 11:28:58;;;;;;;;;18.67;17.67;;;;;;;;5034904;28;45384;-77
2022/11/13 11:31:29;;;;;;;;;22.00;22.00;;;;;;;;5036124;28;45752;-76
2022/11/13 11:33:54;;;;;;;;;20.00;20.00;;;;;;;;5035186;28;45605;-75
2022/11/13 11:36:23;;;;;;;;;25.67;20.33;;;;;;;;5031946;28;45504;-75
2022/11/13 11:38:59;;;;;;;;;17.67;17.00;;;;;;;;5035899;28;45437;-74
2022/11/13 11:41:28;;;;;;;;;24.33;20.67;;;;;;;;5033137;28;45393;-75
2022/11/13 11:44:04;;;;;;;;;25.33;23.00;;;;;;;;5033453;28;45436;-77
2022/11/13 11:46:30;;;;;;;;;23.00;22.00;;;;;;;;5031521;28;45704;-75
2022/11/13 11:48:58;;;;;;;;;20.33;19.67;;;;;;;;5034113;28;45447;-78
2022/11/13 11:51:23;;;;;;;;;24.00;22.33;;;;;;;;5036657;28;45418;-77
2022/11/13 11:53:58;;;;;;;;;19.00;19.00;;;;;;;;5033339;28;45389;-76
2022/11/13 11:56:23;;;;;;;;;23.67;22.00;;;;;;;;5036160;28;45631;-76
2022/11/13 11:59:07;;;;;;;;;21.67;21.67;;;;;;;;5034230;28;45735;-77
2022/11/13 12:01:45;;;;;;;;;22.00;22.00;;;;;;;;5036965;28;45389;-76
2022/11/13 12:04:22;;;;;;;;;21.00;21.00;;;;;;;;5035479;28;45512;-79
2022/11/13 12:07:03;;;;;;;;;20.00;20.00;;;;;;;;5030590;28;47658;-79
2022/11/13 12:09:35;;;;;;;;;26.67;22.00;;;;;;;;5033451;28;45375;-76
2022/11/13 12:12:15;;;;;;;;;24.00;23.00;;;;;;;;5037654;28;45281;-74
2022/11/13 12:14:53;;;;;;;;;25.67;25.00;;;;;;;;5029384;28;45991;-77
2022/11/13 12:17:35;;;;;;;;;26.33;22.33;;;;;;;;5026138;28;48230;-75
2022/11/13 12:20:19;;;;;;;;;25.00;22.67;;;;;;;;5036727;28;45645;-76
2022/11/13 12:23:03;;;;;;;;;28.00;21.67;;;;;;;;5044722;28;45587;-75
2022/11/13 12:25:40;;;;;;;;;24.67;20.33;;;;;;;;5031482;28;45491;-72
2022/11/13 12:28:13;;;;;;;;;29.67;27.00;;;;;;;;5035607;28;46363;-72
2022/11/13 12:30:40;;;;;;;;;25.00;21.67;;;;;;;;5018032;28;45518;-74
2022/11/13 12:33:15;;;;;;;;;28.00;23.33;;;;;;;;5029713;28;45579;-75
2022/11/13 12:35:43;;;;;;;;;26.67;23.33;;;;;;;;5025071;28;45598;-75
2022/11/13 12:38:15;;;;;;;;;27.33;23.33;;;;;;;;5033699;28;45555;-74
2022/11/13 12:40:48;;;;;;;;;24.67;23.33;;;;;;;;5032534;28;45524;-74
2022/11/13 12:43:33;;;;;;;;;26.67;23.67;;;;;;;;5029788;28;45624;-73
2022/11/13 12:46:09;;;;;;;;;26.33;23.67;;;;;;;;5033726;28;45503;-72
2022/11/13 12:48:39;;;;;;;;;28.67;26.00;;;;;;;;5032249;28;47094;-74
2022/11/13 12:51:06;;;;;;;;;27.67;24.33;;;;;;;;5031868;28;45451;-73
2022/11/13 12:53:43;;;;;;;;;24.00;21.67;;;;;;;;5036567;28;45492;-73
2022/11/13 12:56:13;;;;;;;;;26.67;26.67;;;;;;;;5037659;28;45536;-73
2022/11/13 12:58:39;;;;;;;;;26.67;25.67;;;;;;;;5039751;28;45684;-73
2022/11/13 13:01:16;;;;;;;;;27.67;22.33;;;;;;;;5036959;28;45557;-74
2022/11/13 13:04:01;;;;;;;;;24.67;23.33;;;;;;;;5031418;28;45614;-74
2022/11/13 13:06:53;;;;;;;;;29.67;25.00;;;;;;;;5034641;28;45600;-73
2022/11/13 13:09:27;;;;;;;;;27.67;26.67;;;;;;;;5029977;28;46926;-72
2022/11/13 13:11:59;;;;;;;;;29.33;27.00;;;;;;;;5017798;28;45523;-73
2022/11/13 13:14:24;;;;;;;;;27.67;25.33;;;;;;;;5034508;28;45555;-74
2022/11/13 13:16:49;;;;;;;;;30.67;29.33;;;;;;;;5042669;28;45531;-74
2022/11/13 13:19:29;;;;;;;;;29.67;27.67;;;;;;;;5036515;28;46690;-72
2022/11/13 13:21:56;;;;;;;;;37.00;30.00;;;;;;;;5031255;28;45684;-75
2022/11/13 13:24:30;;;;;;;;;27.67;25.33;;;;;;;;5033211;28;45702;-75
2022/11/13 13:26:56;;;;;;;;;36.33;33.00;;;;;;;;5031555;28;45566;-78
2022/11/13 13:29:25;;;;;;;;;29.67;26.00;;;;;;;;5036642;28;47099;-81
2022/11/13 13:31:56;;;;;;;;;29.33;25.67;;;;;;;;5029481;28;45511;-78
2022/11/13 13:34:37;;;;;;;;;28.33;24.33;;;;;;;;5033475;28;45516;-77
2022/11/13 13:37:02;;;;;;;;;29.33;26.67;;;;;;;;5032878;28;45710;-81
2022/11/13 13:39:37;;;;;;;;;30.00;26.67;;;;;;;;5032376;28;47299;-75
2022/11/13 13:42:29;;;;;;;;;26.00;22.67;;;;;;;;5036497;28;45823;-76
2022/11/13 13:45:12;;;;;;;;;39.00;31.67;;;;;;;;5033366;28;45525;-75
2022/11/13 13:47:40;;;;;;;;;33.33;28.67;;;;;;;;5033592;28;45511;-79
2022/11/13 13:50:07;;;;;;;;;29.00;25.33;;;;;;;;5036121;28;47572;-78
2022/11/13 13:52:33;;;;;;;;;30.00;26.00;;;;;;;;5036866;28;45365;-77
2022/11/13 13:55:00;;;;;;;;;24.33;23.67;;;;;;;;5035141;28;45452;-78
2022/11/13 13:57:26;;;;;;;;;30.67;26.00;;;;;;;;5038998;28;45529;-78
2022/11/13 13:59:51;;;;;;;;;27.00;24.00;;;;;;;;5038813;28;46470;-79
2022/11/13 14:02:18;;;;;;;;;27.00;26.00;;;;;;;;5034613;28;46031;-79
2022/11/13 14:04:48;;;;;;;;;36.33;31.67;;;;;;;;5036693;28;45520;-76
2022/11/13 14:07:20;;;;;;;;;28.00;27.33;;;;;;;;5029187;28;45476;-74
2022/11/13 14:09:45;;;;;;;;;26.33;24.33;;;;;;;;5034881;28;47250;-74
2022/11/13 14:12:18;;;;;;;;;27.00;24.67;;;;;;;;5036843;28;45327;-75
2022/11/13 14:14:43;;;;;;;;;29.67;26.33;;;;;;;;5070220;28;45392;-74
2022/11/13 14:17:09;;;;;;;;;30.00;26.00;;;;;;;;5037347;28;45425;-78
2022/11/13 14:19:37;;;;;;;;;27.67;26.33;;;;;;;;5036698;28;47385;-81
2022/11/13 14:22:15;;;;;;;;;27.67;25.67;;;;;;;;5054358;22;45894;-89
2022/11/13 14:24:40;;;;;;;;;27.33;24.00;;;;;;;;5021773;22;45457;-75